Gennaro Ievoli — 9HA3007 — position and weather

sailwx.info

Track history (hours):
 
Tides and Currents Weather Stations Pressure Air Temp Water Temp Dewpoint Dewpoint Depression Visibility Wind Speed Wind Dir Waves Ship Positions

Gennaro Ievoli

Last reported at 2017-Mar-30 00:16 UTC. Time now 2017-Apr-30 09:00 UTC.
Position N 02°03' E 102°09'.
Warning: this ship's position is 31 days out of date.

Length 171 m; draft 9.6 m.

Type: Ship (hazmat cat B). MMSI: 229031000.

Date/timePositionNaut miles runAvg speedWind from/ knotsBaromVisibWave heightAir tempDewpointWater temp
2017-Mar-30 00:16N 02°03' E 102°09'1212.4
2017-Mar-29 23:15N 01°56' E 102°19'1013.8
2017-Mar-29 22:33N 01°52' E 102°27'1514.8
2017-Mar-29 21:33N 01°46' E 102°41'4414.5
2017-Mar-29 18:32N 01°21' E 103°17'1312.7
2017-Mar-29 17:32N 01°13' E 103°27'1111.5
2017-Mar-29 16:33N 01°12' E 103°38'1 1.2
2017-Mar-29 15:30N 01°13' E 103°38'0 0.0
2017-Mar-29 14:33N 01°13' E 103°38'0 0.0
2017-Mar-29 13:24N 01°13' E 103°38'0 0.0
2017-Mar-29 12:33N 01°13' E 103°38'0 0.1
2017-Mar-29 11:32N 01°13' E 103°39'0 0.0
2017-Mar-29 10:29N 01°13' E 103°39'0 0.0
2017-Mar-29 09:19N 01°13' E 103°39'0 0.1
2017-Mar-29 08:31N 01°13' E 103°39'0 0.1
2017-Mar-29 07:31N 01°13' E 103°39'0 0.0
2017-Mar-29 06:30N 01°13' E 103°39'0 0.1
2017-Mar-29 05:31N 01°13' E 103°38'0 0.0
2017-Mar-29 04:31N 01°13' E 103°38'0 0.0
2017-Mar-29 03:15N 01°13' E 103°38'0 0.1
2017-Mar-29 02:33N 01°13' E 103°38'0 0.1
2017-Mar-29 01:33N 01°13' E 103°38'0 0.1
2017-Mar-29 00:33N 01°13' E 103°38'4 4.4
2017-Mar-28 23:33N 01°10' E 103°42'9 8.6
2017-Mar-28 22:32N 01°12' E 103°50'10 9.9
2017-Mar-28 21:34N 01°15' E 103°59'  
Track history (hours):
 
Tides and Currents Weather Stations Pressure Air Temp Water Temp Dewpoint Dewpoint Depression Visibility Wind Speed Wind Dir Waves Ship Positions

Gennaro Ievoli

Last reported at 2017-Mar-30 00:16 UTC. Time now 2017-Apr-30 09:00 UTC.
Position N 02°03' E 102°09'.
Warning: this ship's position is 31 days out of date.

Length 171 m; draft 9.6 m.

Type: Ship (hazmat cat B). MMSI: 229031000.

Date/timePositionNaut miles runAvg speedWind from/ knotsBaromVisibWave heightAir tempDewpointWater temp
2017-Mar-30 00:16N 02°03' E 102°09'1212.4
2017-Mar-29 23:15N 01°56' E 102°19'1013.8
2017-Mar-29 22:33N 01°52' E 102°27'1514.8
2017-Mar-29 21:33N 01°46' E 102°41'4414.5
2017-Mar-29 18:32N 01°21' E 103°17'1312.7
2017-Mar-29 17:32N 01°13' E 103°27'1111.5
2017-Mar-29 16:33N 01°12' E 103°38'1 1.2
2017-Mar-29 15:30N 01°13' E 103°38'0 0.0
2017-Mar-29 14:33N 01°13' E 103°38'0 0.0
2017-Mar-29 13:24N 01°13' E 103°38'0 0.0
2017-Mar-29 12:33N 01°13' E 103°38'0 0.1
2017-Mar-29 11:32N 01°13' E 103°39'0 0.0
2017-Mar-29 10:29N 01°13' E 103°39'0 0.0
2017-Mar-29 09:19N 01°13' E 103°39'0 0.1
2017-Mar-29 08:31N 01°13' E 103°39'0 0.1
2017-Mar-29 07:31N 01°13' E 103°39'0 0.0
2017-Mar-29 06:30N 01°13' E 103°39'0 0.1
2017-Mar-29 05:31N 01°13' E 103°38'0 0.0
2017-Mar-29 04:31N 01°13' E 103°38'0 0.0
2017-Mar-29 03:15N 01°13' E 103°38'0 0.1
2017-Mar-29 02:33N 01°13' E 103°38'0 0.1
2017-Mar-29 01:33N 01°13' E 103°38'0 0.1
2017-Mar-29 00:33N 01°13' E 103°38'4 4.4
2017-Mar-28 23:33N 01°10' E 103°42'9 8.6
2017-Mar-28 22:32N 01°12' E 103°50'10 9.9
2017-Mar-28 21:34N 01°15' E 103°59'  

Dump ship's entire track history